Time;durP1;ratioP1;P1;durP2;ratioP2;P2;SDS_P1;SDS_P2;PMS_P1;PMS_P2;Temp;Humidity;BMP_temperature;BMP_pressure;BME280_temperature;BME280_humidity;BME280_pressure;Samples;Min_cycle;Max_cycle;Signal;HPM_P1;HPM_P2
2021/05/17 00:00:55;;;;;;;14.60;7.72;;;;;;;10.58;100.00;96767.28;5057023;28;20036;-74
2021/05/17 00:03:21;;;;;;;11.88;7.97;;;;;;;10.59;100.00;96767.16;5056748;28;20035;-73
2021/05/17 00:05:46;;;;;;;12.30;7.65;;;;;;;10.54;100.00;96763.13;5073553;28;20016;-73
2021/05/17 00:08:12;;;;;;;19.65;7.80;;;;;;;10.54;100.00;96760.44;5073722;28;20399;-74
2021/05/17 00:10:39;;;;;;;17.90;7.20;;;;;;;10.49;100.00;96759.94;5073393;28;20495;-75
2021/05/17 00:13:05;;;;;;;11.32;7.30;;;;;;;10.43;100.00;96747.84;5091673;28;20050;-75
2021/05/17 00:15:30;;;;;;;11.05;7.80;;;;;;;10.42;100.00;96748.84;5073117;28;20028;-74
2021/05/17 00:17:56;;;;;;;15.85;7.75;;;;;;;10.41;100.00;96747.13;5073274;28;20024;-74
2021/05/17 00:20:24;;;;;;;15.95;7.55;;;;;;;10.28;100.00;96741.84;5073277;28;20028;-74
2021/05/17 00:22:50;;;;;;;16.58;8.32;;;;;;;10.29;100.00;96748.91;5073557;28;20028;-74
2021/05/17 00:25:22;;;;;;;11.73;8.13;;;;;;;10.27;100.00;96748.13;5091409;28;20050;-74
2021/05/17 00:27:48;;;;;;;10.68;6.82;;;;;;;10.25;100.00;96747.41;5074177;28;20020;-73
2021/05/17 00:30:14;;;;;;;15.82;7.45;;;;;;;10.21;100.00;96750.44;5073373;28;20050;-74
2021/05/17 00:32:40;;;;;;;12.80;7.28;;;;;;;10.06;100.00;96730.16;5073086;28;20118;-73
2021/05/17 00:35:06;;;;;;;9.65;6.75;;;;;;;10.10;100.00;96743.16;5056607;28;20135;-73
2021/05/17 00:37:32;;;;;;;8.98;6.38;;;;;;;10.01;100.00;96741.16;5073085;28;20032;-75
2021/05/17 00:39:58;;;;;;;11.20;6.72;;;;;;;10.00;100.00;96744.78;5073159;28;20034;-75
2021/05/17 00:42:23;;;;;;;22.63;6.43;;;;;;;9.96;100.00;96746.00;5091107;28;20089;-74
2021/05/17 00:44:49;;;;;;;14.35;7.00;;;;;;;9.96;100.00;96747.81;5073264;28;20471;-74
2021/05/17 00:47:16;;;;;;;15.35;6.95;;;;;;;9.92;100.00;96748.97;5056232;28;20024;-74
2021/05/17 00:49:44;;;;;;;14.55;6.25;;;;;;;9.93;100.00;96759.56;5054849;28;20415;-73
2021/05/17 00:52:10;;;;;;;13.63;7.15;;;;;;;9.87;100.00;96754.66;5073114;28;20031;-73
2021/05/17 00:54:37;;;;;;;17.40;8.30;;;;;;;9.88;100.00;96758.16;5072731;28;20079;-73
2021/05/17 00:57:04;;;;;;;14.48;8.18;;;;;;;9.77;100.00;96756.28;5056340;28;20553;-75
2021/05/17 00:59:31;;;;;;;14.10;8.32;;;;;;;9.77;100.00;96750.94;5055740;28;20402;-73
2021/05/17 01:01:57;;;;;;;15.43;8.35;;;;;;;9.77;100.00;96759.81;5056050;28;20035;-74
2021/05/17 01:04:22;;;;;;;11.10;8.05;;;;;;;9.73;100.00;96744.97;5090339;28;20118;-74
2021/05/17 01:06:51;;;;;;;16.65;8.85;;;;;;;9.74;100.00;96748.47;5072848;28;20090;-74
2021/05/17 01:09:17;;;;;;;13.93;7.80;;;;;;;9.84;100.00;96749.53;5092905;28;20028;-75
2021/05/17 01:11:43;;;;;;;11.60;8.00;;;;;;;9.84;100.00;96754.88;5059999;28;20077;-74
2021/05/17 01:14:09;;;;;;;13.23;7.60;;;;;;;9.81;100.00;96752.44;5077010;28;20032;-74
2021/05/17 01:16:35;;;;;;;14.75;8.18;;;;;;;9.82;100.00;96759.47;5076565;28;20023;-74
2021/05/17 01:19:03;;;;;;;18.40;8.27;;;;;;;9.78;100.00;96750.81;5060052;28;20024;-74
2021/05/17 01:21:34;;;;;;;12.90;8.27;;;;;;;9.80;100.00;96756.06;5076643;28;20024;-74
2021/05/17 01:24:00;;;;;;;12.75;7.30;;;;;;;9.79;100.00;96754.34;5060661;28;20030;-74
2021/05/17 01:26:28;;;;;;;16.95;6.82;;;;;;;9.78;100.00;96769.50;5060042;28;20016;-74
2021/05/17 01:29:05;;;;;;;11.05;6.80;;;;;;;9.69;100.00;96756.81;5076487;28;20074;-74
2021/05/17 01:31:31;;;;;;;16.05;7.80;;;;;;;9.64;100.00;96758.09;5076265;28;20551;-73
2021/05/17 01:33:56;;;;;;;15.13;7.95;;;;;;;9.65;100.00;96754.47;5059877;28;20020;-73
2021/05/17 01:36:23;;;;;;;18.85;9.25;;;;;;;9.64;100.00;96755.44;5076357;28;20028;-73
2021/05/17 01:38:52;;;;;;;23.60;8.98;;;;;;;9.62;100.00;96760.03;5076293;28;20024;-74
2021/05/17 01:41:19;;;;;;;35.63;9.65;;;;;;;9.65;100.00;96770.50;5059708;28;20024;-74
2021/05/17 01:43:47;;;;;;;43.75;10.50;;;;;;;9.54;100.00;96767.72;5075875;28;20570;-74
2021/05/17 01:46:22;;;;;;;22.10;10.63;;;;;;;9.56;100.00;96764.00;5076378;28;20039;-73
2021/05/17 01:48:48;;;;;;;18.45;11.07;;;;;;;9.46;100.00;96757.59;5076103;28;20063;-73
2021/05/17 01:51:16;;;;;;;17.52;10.98;;;;;;;9.53;100.00;96771.38;5076264;28;20494;-73
2021/05/17 01:53:43;;;;;;;21.42;10.85;;;;;;;9.51;100.00;96766.13;5059185;28;20023;-74
2021/05/17 01:56:09;;;;;;;17.45;10.73;;;;;;;9.53;100.00;96764.22;5076002;28;20426;-73
2021/05/17 01:58:36;;;;;;;20.30;10.88;;;;;;;9.51;100.00;96759.91;5059214;28;20020;-74
2021/05/17 02:01:04;;;;;;;18.20;10.55;;;;;;;9.52;100.00;96761.66;5059450;28;20395;-74
2021/05/17 02:03:31;;;;;;;16.83;10.10;;;;;;;9.50;100.00;96752.91;5076110;28;20132;-74
2021/05/17 02:05:56;;;;;;;19.67;9.38;;;;;;;9.53;100.00;96766.03;5075752;28;20016;-74
2021/05/17 02:08:22;;;;;;;18.27;9.30;;;;;;;9.50;100.00;96755.56;5075866;28;20023;-74
2021/05/17 02:10:48;;;;;;;13.15;9.75;;;;;;;9.45;100.00;96749.69;5075751;28;20039;-74
2021/05/17 02:13:19;;;;;;;13.90;10.10;;;;;;;9.43;100.00;96752.47;5075868;28;20056;-74
2021/05/17 02:15:46;;;;;;;20.65;10.13;;;;;;;9.39;100.00;96750.09;5058796;28;20456;-74
2021/05/17 02:18:12;;;;;;;23.45;11.40;;;;;;;9.43;100.00;96751.63;5093928;28;20065;-75
2021/05/17 02:20:40;;;;;;;18.85;10.52;;;;;;;9.51;100.00;96751.91;5074730;28;20076;-75
2021/05/17 02:23:09;;;;;;;17.08;11.52;;;;;;;9.47;100.00;96739.78;5075624;28;20027;-74
2021/05/17 02:25:35;;;;;;;27.10;14.00;;;;;;;9.47;100.00;96745.09;5059004;28;20386;-74
2021/05/17 02:28:00;;;;;;;27.63;14.98;;;;;;;9.51;100.00;96743.91;5075284;28;20039;-73
2021/05/17 02:30:26;;;;;;;28.30;14.93;;;;;;;9.50;100.00;96744.91;5075567;28;20012;-74
2021/05/17 02:32:53;;;;;;;22.77;13.80;;;;;;;9.51;100.00;96743.91;5075294;28;20024;-74
2021/05/17 02:35:20;;;;;;;22.80;12.93;;;;;;;9.56;100.00;96758.66;5058540;28;20055;-74
2021/05/17 02:37:47;;;;;;;18.80;11.45;;;;;;;9.51;100.00;96749.25;5058290;28;20031;-75
2021/05/17 02:40:13;;;;;;;17.65;10.07;;;;;;;9.59;100.00;96753.09;5075238;28;20099;-74
2021/05/17 02:42:42;;;;;;;17.25;9.35;;;;;;;9.49;100.00;96757.38;5058319;28;20112;-74
2021/05/17 02:45:09;;;;;;;14.93;8.85;;;;;;;9.46;100.00;96746.06;5075193;28;20472;-74
2021/05/17 02:47:36;;;;;;;19.52;8.45;;;;;;;9.49;100.00;96753.84;5093490;28;20047;-74
2021/05/17 02:50:03;;;;;;;14.48;10.00;;;;;;;9.42;100.00;96765.91;5075405;28;20028;-74
2021/05/17 02:52:30;;;;;;;19.05;9.85;;;;;;;9.34;100.00;96763.78;5074902;28;20020;-74
2021/05/17 02:55:07;;;;;;;13.60;9.02;;;;;;;9.32;100.00;96771.03;5054347;28;20410;-73
2021/05/17 02:57:45;;;;;;;27.63;9.15;;;;;;;9.34;100.00;96773.59;5058239;28;20036;-75
2021/05/17 03:00:12;;;;;;;12.57;8.30;;;;;;;9.38;100.00;96780.44;5075218;28;20024;-73
2021/05/17 03:02:52;;;;;;;13.52;8.07;;;;;;;9.30;100.00;96767.63;5074643;28;20054;-73
2021/05/17 03:05:18;;;;;;;9.77;7.60;;;;;;;9.42;100.00;96779.25;5074771;28;20051;-74
2021/05/17 03:07:47;;;;;;;11.80;8.23;;;;;;;9.40;100.00;96774.03;5074816;28;20383;-73
2021/05/17 03:10:12;;;;;;;9.85;7.05;;;;;;;9.43;100.00;96773.81;5058009;28;20059;-73
2021/05/17 03:12:38;;;;;;;10.10;6.03;;;;;;;9.56;100.00;96781.84;5091311;28;20436;-74
2021/05/17 03:15:06;;;;;;;7.80;6.30;;;;;;;9.56;100.00;96768.47;5074340;28;20449;-74
2021/05/17 03:17:31;;;;;;;12.07;6.43;;;;;;;9.64;100.00;96776.78;5057521;28;20490;-74
2021/05/17 03:19:57;;;;;;;11.27;6.65;;;;;;;9.69;100.00;96774.69;5074200;28;20030;-73
2021/05/17 03:22:23;;;;;;;9.50;6.10;;;;;;;9.76;100.00;96776.78;5091431;28;20516;-74
2021/05/17 03:24:51;;;;;;;10.98;6.05;;;;;;;9.83;100.00;96785.22;5057636;28;20032;-74
2021/05/17 03:27:22;;;;;;;12.20;6.82;;;;;;;9.85;100.00;96777.94;5074455;28;20047;-74
2021/05/17 03:29:48;;;;;;;10.35;6.63;;;;;;;9.85;100.00;96785.94;5108161;28;20020;-73
2021/05/17 03:32:14;;;;;;;9.15;6.72;;;;;;;9.86;100.00;96784.13;5049143;28;20038;-73
2021/05/17 03:34:40;;;;;;;13.50;7.13;;;;;;;9.94;100.00;96787.09;5074328;28;20063;-74
2021/05/17 03:37:05;;;;;;;14.70;8.00;;;;;;;10.05;100.00;96782.72;5090858;28;20032;-74
2021/05/17 03:39:31;;;;;;;13.27;8.07;;;;;;;10.05;100.00;96785.41;5057468;28;20028;-74
2021/05/17 03:41:57;;;;;;;15.73;8.05;;;;;;;10.07;100.00;96780.78;5074117;28;20028;-74
2021/05/17 03:44:22;;;;;;;10.02;7.68;;;;;;;9.98;100.00;96784.13;5073926;28;20028;-74
2021/05/17 03:46:48;;;;;;;11.82;8.43;;;;;;;9.95;100.00;96786.16;5073957;28;20028;-74
2021/05/17 03:49:14;;;;;;;16.27;9.32;;;;;;;9.92;100.00;96792.56;5073834;28;20388;-74
2021/05/17 03:51:40;;;;;;;20.15;9.18;;;;;;;10.01;100.00;96794.59;5074081;28;20115;-74
2021/05/17 03:54:05;;;;;;;20.85;10.10;;;;;;;10.00;100.00;96800.88;5090212;28;20134;-74
2021/05/17 03:56:31;;;;;;;32.40;11.90;;;;;;;10.04;100.00;96802.38;5091750;28;20024;-74
2021/05/17 03:58:56;;;;;;;18.77;10.20;;;;;;;10.12;100.00;96809.84;5091767;28;20039;-74
2021/05/17 04:01:22;;;;;;;20.20;10.80;;;;;;;10.16;100.00;96806.88;5089964;28;20031;-74
2021/05/17 04:03:48;;;;;;;20.98;10.43;;;;;;;10.14;100.00;96794.59;5073647;28;20028;-74
2021/05/17 04:14:16;;;;;;;17.17;9.90;;;;;;;10.41;100.00;96794.41;5091458;28;20066;-74
2021/05/17 04:16:42;;;;;;;31.35;10.88;;;;;;;10.49;100.00;96792.03;5090220;28;20468;-75
2021/05/17 04:19:07;;;;;;;20.05;10.52;;;;;;;10.58;100.00;96797.53;5091590;28;20081;-75
2021/05/17 04:21:33;;;;;;;13.85;9.73;;;;;;;10.72;100.00;96804.53;5089991;28;20042;-74
2021/05/17 04:23:58;;;;;;;16.13;10.00;;;;;;;10.94;100.00;96793.94;5073232;28;20032;-74
2021/05/17 04:26:24;;;;;;;18.40;9.27;;;;;;;11.20;100.00;96799.97;5072766;28;20053;-73
2021/05/17 04:28:50;;;;;;;15.60;9.80;;;;;;;11.75;100.00;96799.28;5056018;28;20534;-74
2021/05/17 04:31:15;;;;;;;21.15;9.55;;;;;;;13.21;98.17;96801.56;5056182;28;20035;-75
2021/05/17 04:33:41;;;;;;;24.95;9.10;;;;;;;14.82;86.80;96809.75;5073369;28;20030;-74
2021/05/17 04:36:06;;;;;;;18.27;9.07;;;;;;;14.63;84.91;96800.66;5072971;28;20028;-75
2021/05/17 04:38:32;;;;;;;17.77;9.10;;;;;;;13.90;87.67;96797.38;5056112;28;20032;-74
2021/05/17 04:40:58;;;;;;;14.98;8.20;;;;;;;13.44;90.36;96781.69;5056257;28;20411;-74
2021/05/17 04:43:23;;;;;;;14.27;8.18;;;;;;;13.30;92.20;96785.53;5072481;28;20175;-74
2021/05/17 04:45:49;;;;;;;19.52;9.50;;;;;;;13.09;93.51;96771.25;5056376;28;20034;-74
2021/05/17 04:48:14;;;;;;;19.83;10.23;;;;;;;12.78;95.57;96782.81;5090953;28;20470;-75
2021/05/17 04:50:40;;;;;;;17.38;9.48;;;;;;;12.74;96.74;96786.72;5073372;28;20463;-75
2021/05/17 04:53:05;;;;;;;19.13;9.60;;;;;;;12.65;97.26;96782.09;5072866;28;20107;-75
2021/05/17 04:55:32;;;;;;;19.73;9.23;;;;;;;12.88;97.26;96784.63;5072404;28;20055;-74
2021/05/17 04:57:58;;;;;;;22.02;10.32;;;;;;;12.94;96.69;96776.03;5073082;28;20035;-74
2021/05/17 05:00:23;;;;;;;24.17;14.18;;;;;;;13.44;95.31;96765.56;5072734;28;20082;-74
2021/05/17 05:02:49;;;;;;;19.63;9.30;;;;;;;13.46;92.50;96769.81;5091069;28;20032;-75
2021/05/17 05:05:15;;;;;;;22.25;11.20;;;;;;;13.46;93.28;96772.50;5072843;28;20032;-73
2021/05/17 05:07:41;;;;;;;13.88;9.35;;;;;;;13.38;94.23;96761.53;5056255;28;20077;-74
2021/05/17 05:10:07;;;;;;;19.65;9.20;;;;;;;13.53;94.66;96756.72;5056032;28;20414;-74
2021/05/17 05:12:33;;;;;;;26.58;17.08;;;;;;;14.47;90.19;96751.88;5072885;28;20063;-74
2021/05/17 05:14:58;;;;;;;20.00;9.90;;;;;;;16.22;81.94;96772.16;5090924;28;20086;-73
2021/05/17 05:17:24;;;;;;;13.73;7.25;;;;;;;18.74;69.75;96785.00;5055867;28;21481;-74
2021/05/17 05:19:49;;;;;;;38.83;21.63;;;;;;;20.68;60.89;96786.84;5072753;28;20169;-74
2021/05/17 05:22:15;;;;;;;81.22;36.03;;;;;;;22.13;55.84;96786.75;5056101;28;20502;-74
2021/05/17 05:24:41;;;;;;;105.43;56.75;;;;;;;23.79;50.01;96793.34;5072627;28;20024;-74
2021/05/17 05:32:39;;;;;;;65.10;28.38;;;;;;;26.07;40.76;96792.06;5075753;28;20059;-74
2021/05/17 05:35:05;;;;;;;40.72;19.65;;;;;;;26.24;40.61;96793.38;5074481;28;20063;-75
2021/05/17 05:37:30;;;;;;;32.47;14.90;;;;;;;26.45;39.08;96790.41;5055397;28;20060;-74
2021/05/17 05:39:56;;;;;;;33.40;14.70;;;;;;;27.33;38.36;96786.16;5072481;28;20044;-74
2021/05/17 05:42:23;;;;;;;23.33;13.55;;;;;;;27.65;37.90;96795.34;5090398;28;20110;-74
2021/05/17 05:44:49;;;;;;;32.33;15.98;;;;;;;27.67;37.38;96793.19;5055999;28;20109;-73
2021/05/17 05:47:16;;;;;;;37.10;16.70;;;;;;;27.21;37.80;96788.75;5090637;28;20501;-75
2021/05/17 05:49:47;;;;;;;28.08;14.98;;;;;;;28.17;37.25;96788.66;5072633;28;20026;-75
2021/05/17 05:52:14;;;;;;;27.90;14.25;;;;;;;29.55;35.23;96777.91;5072311;28;20028;-75
2021/05/17 05:54:39;;;;;;;33.67;12.93;;;;;;;30.54;32.39;96795.75;5055677;28;20131;-74
2021/05/17 05:57:09;;;;;;;30.70;12.05;;;;;;;29.76;34.50;96793.09;5093028;28;20123;-74
2021/05/17 05:59:35;;;;;;;20.35;9.25;;;;;;;30.66;32.74;96799.34;5076292;28;20031;-74
2021/05/17 06:02:01;;;;;;;15.50;9.13;;;;;;;31.36;31.59;96802.91;5059358;28;20028;-74
2021/05/17 06:04:26;;;;;;;16.25;8.82;;;;;;;31.06;32.33;96797.56;5059056;28;20036;-74
2021/05/17 06:06:52;;;;;;;21.58;12.50;;;;;;;30.61;32.78;96805.56;5092841;28;20028;-75
2021/05/17 06:09:17;;;;;;;36.72;17.50;;;;;;;29.52;34.55;96791.31;5059000;28;20122;-76
2021/05/17 06:11:43;;;;;;;19.33;11.18;;;;;;;30.17;33.82;96785.94;5094098;28;20035;-74
2021/05/17 06:14:10;;;;;;;22.25;12.25;;;;;;;30.71;32.57;96780.13;5059109;28;20547;-74
2021/05/17 06:16:36;;;;;;;19.00;6.97;;;;;;;31.01;31.58;96769.78;5075476;28;20035;-74
2021/05/17 06:19:02;;;;;;;13.32;7.03;;;;;;;30.71;32.65;96773.75;5059041;28;20398;-74
2021/05/17 06:21:28;;;;;;;12.57;5.45;;;;;;;30.70;32.39;96764.66;5092345;28;20441;-74
2021/05/17 06:23:57;;;;;;;14.50;6.38;;;;;;;30.64;32.25;96747.09;5092536;28;20035;-75
2021/05/17 06:26:25;;;;;;;8.63;5.32;;;;;;;31.56;31.50;96739.75;5075477;28;20063;-75
2021/05/17 06:28:50;;;;;;;21.13;4.75;;;;;;;31.36;32.58;96725.50;5075693;28;20566;-74
2021/05/17 06:31:17;;;;;;;13.57;4.97;;;;;;;29.68;35.69;96727.25;5075397;28;20116;-75
2021/05/17 06:33:45;;;;;;;13.63;4.53;;;;;;;29.42;35.79;96736.72;5075514;28;20490;-75
2021/05/17 06:36:13;;;;;;;13.27;4.72;;;;;;;29.53;36.49;96729.59;5058566;28;20052;-74
2021/05/17 06:38:40;;;;;;;6.65;4.10;;;;;;;30.09;35.66;96732.75;5093259;28;20028;-74
2021/05/17 06:41:07;;;;;;;10.05;3.83;;;;;;;28.60;37.95;96730.91;5075305;28;20074;-74
2021/05/17 06:43:34;;;;;;;9.00;3.55;;;;;;;27.80;39.24;96736.25;5091957;28;20482;-74
2021/05/17 06:46:01;;;;;;;6.78;3.72;;;;;;;26.36;42.14;96732.16;5108868;28;20032;-74
2021/05/17 06:48:27;;;;;;;16.98;4.70;;;;;;;24.60;46.50;96722.50;5091687;28;20039;-74
2021/05/17 06:50:54;;;;;;;11.75;5.22;;;;;;;24.04;48.65;96720.84;5075150;28;20020;-73
2021/05/17 06:53:20;;;;;;;12.35;5.22;;;;;;;24.61;47.90;96718.69;5092191;28;20398;-74
2021/05/17 06:56:02;;;;;;;9.13;4.68;;;;;;;24.88;46.98;96718.88;5091485;28;20044;-74
2021/05/17 06:58:35;;;;;;;7.40;3.92;;;;;;;25.04;45.58;96710.31;5077007;28;20067;-74
2021/05/17 07:01:00;;;;;;;5.97;3.53;;;;;;;25.82;43.28;96715.09;5092646;28;20036;-74
2021/05/17 07:03:26;;;;;;;6.80;3.70;;;;;;;27.24;42.31;96716.91;5108421;28;20149;-75
2021/05/17 07:05:53;;;;;;;8.90;3.50;;;;;;;27.78;39.11;96713.59;5057897;28;20505;-74
2021/05/17 07:13:47;;;;;;;13.15;4.78;;;;;;;26.68;42.38;96715.84;5077709;28;20043;-74
2021/05/17 07:16:13;;;;;;;9.25;4.20;;;;;;;26.66;41.83;96731.69;5092640;28;20040;-74
2021/05/17 07:18:38;;;;;;;12.52;4.55;;;;;;;26.60;42.74;96716.94;5091204;28;20055;-74
2021/05/17 07:23:39;;;;;;;8.02;3.90;;;;;;;25.97;46.14;96717.59;5074241;28;20059;-74
2021/05/17 07:26:17;;;;;;;14.77;4.57;;;;;;;25.74;46.86;96721.63;5059115;28;20067;-74
2021/05/17 07:28:44;;;;;;;10.90;3.33;;;;;;;25.53;45.97;96719.09;5074350;28;20036;-74
2021/05/17 07:31:10;;;;;;;10.27;3.80;;;;;;;25.00;48.74;96717.22;5074416;28;20032;-74
2021/05/17 07:33:38;;;;;;;13.88;5.20;;;;;;;25.02;49.57;96715.97;5107962;28;20036;-74
2021/05/17 07:36:04;;;;;;;10.48;4.47;;;;;;;25.61;48.25;96720.78;5073912;28;20126;-75
2021/05/17 07:38:31;;;;;;;7.18;3.50;;;;;;;26.53;44.29;96723.47;5092188;28;20114;-75
2021/05/17 07:40:58;;;;;;;7.28;3.50;;;;;;;26.94;43.80;96732.25;5074585;28;20491;-75
2021/05/17 07:43:24;;;;;;;10.10;3.80;;;;;;;27.01;41.38;96730.31;5074118;28;20042;-75
2021/05/17 07:45:51;;;;;;;7.43;3.03;;;;;;;27.10;40.78;96723.50;5092056;28;20039;-75
2021/05/17 07:48:16;;;;;;;4.57;2.70;;;;;;;26.36;41.64;96704.72;5074134;28;20135;-76
2021/05/17 07:50:42;;;;;;;16.73;11.05;;;;;;;26.24;42.58;96716.59;5073852;28;20419;-75
2021/05/17 07:53:08;;;;;;;6.13;3.05;;;;;;;26.35;42.24;96711.28;5092093;28;20035;-75
2021/05/17 07:55:33;;;;;;;5.97;2.95;;;;;;;26.51;42.47;96711.88;5073424;28;20075;-76
2021/05/17 07:57:59;;;;;;;3.92;2.40;;;;;;;27.07;41.19;96703.91;5090746;28;20032;-75
2021/05/17 08:00:25;;;;;;;3.13;2.20;;;;;;;27.69;40.34;96706.69;5107681;28;20043;-75
2021/05/17 08:02:50;;;;;;;6.50;3.22;;;;;;;28.30;39.80;96681.25;5056926;28;20063;-75
2021/05/17 08:05:17;;;;;;;9.40;2.63;;;;;;;28.28;40.84;96686.97;5073778;28;20090;-75
2021/05/17 08:07:42;;;;;;;18.48;2.70;;;;;;;28.23;40.89;96681.31;5091576;28;20020;-76
2021/05/17 08:10:10;;;;;;;4.28;2.13;;;;;;;28.00;40.11;96675.56;5057025;28;20042;-76
2021/05/17 08:12:37;;;;;;;15.70;4.68;;;;;;;28.02;41.78;96686.34;5056594;28;20028;-76
2021/05/17 08:15:03;;;;;;;11.30;2.45;;;;;;;27.51;41.31;96679.16;5091712;28;20047;-76
2021/05/17 08:17:30;;;;;;;10.50;2.08;;;;;;;27.69;39.11;96684.72;5089479;28;20027;-76
2021/05/17 08:19:55;;;;;;;5.13;1.45;;;;;;;27.51;38.08;96676.41;5056569;28;20473;-76
2021/05/17 08:22:21;;;;;;;5.35;1.65;;;;;;;27.26;38.38;96690.03;5107161;28;20066;-76
2021/05/17 08:24:47;;;;;;;6.88;1.80;;;;;;;27.88;38.40;96694.72;5072924;28;20070;-76
2021/05/17 08:27:12;;;;;;;3.05;1.65;;;;;;;27.85;37.99;96694.31;5091549;28;20464;-76
2021/05/17 08:29:38;;;;;;;5.25;1.45;;;;;;;27.83;38.18;96693.72;5073175;28;20384;-76
2021/05/17 08:32:07;;;;;;;18.08;1.75;;;;;;;26.65;39.62;96672.38;5090027;28;20031;-76
2021/05/17 08:34:33;;;;;;;4.55;1.58;;;;;;;26.57;38.38;96654.25;5073651;28;20035;-76
2021/05/17 08:37:00;;;;;;;12.38;2.58;;;;;;;26.69;39.12;96655.25;5090958;28;20028;-75
2021/05/17 08:39:27;;;;;;;8.02;2.75;;;;;;;27.10;38.13;96674.06;5073122;28;20040;-76
2021/05/17 08:41:52;;;;;;;7.18;1.70;;;;;;;27.66;35.10;96670.56;5072918;28;20028;-76
2021/05/17 08:44:20;;;;;;;8.45;1.30;;;;;;;26.83;36.00;96665.13;5073097;28;20035;-75
2021/05/17 08:46:47;;;;;;;10.38;2.00;;;;;;;26.96;38.04;96671.63;5072947;28;20047;-76
2021/05/17 08:49:16;;;;;;;2.65;1.38;;;;;;;26.07;38.52;96674.16;5089906;28;20070;-76
2021/05/17 08:51:42;;;;;;;9.20;2.10;;;;;;;25.98;39.58;96673.56;5089727;28;20039;-74
2021/05/17 08:54:09;;;;;;;3.22;1.50;;;;;;;25.65;40.29;96670.00;5089822;28;20052;-74
2021/05/17 08:56:39;;;;;;;6.90;2.30;;;;;;;25.56;40.50;96674.84;5072651;28;20459;-74
2021/05/17 08:59:06;;;;;;;5.55;2.05;;;;;;;25.27;39.83;96661.50;5056352;28;20036;-75
2021/05/17 09:01:33;;;;;;;10.07;2.50;;;;;;;25.25;42.14;96671.81;5106839;28;20028;-74
2021/05/17 09:04:11;;;;;;;5.32;1.95;;;;;;;24.69;40.10;96660.25;5073050;28;20028;-75
2021/05/17 09:06:43;;;;;;;6.30;1.80;;;;;;;24.41;41.58;96667.69;5089520;28;20024;-75
2021/05/17 09:09:36;;;;;;;5.68;1.80;;;;;;;24.12;43.53;96660.56;5073098;28;20023;-75
2021/05/17 09:12:15;;;;;;;5.15;1.73;;;;;;;23.69;44.17;96660.69;5072931;28;20028;-75
2021/05/17 09:14:43;;;;;;;4.63;1.55;;;;;;;23.76;43.37;96652.53;5055940;28;20028;-74
2021/05/17 09:17:10;;;;;;;1.88;1.25;;;;;;;24.19;42.00;96658.75;5056455;28;20112;-74
2021/05/17 09:19:38;;;;;;;6.85;1.52;;;;;;;24.74;44.00;96660.47;5056110;28;20058;-75
2021/05/17 09:22:08;;;;;;;10.35;1.60;;;;;;;25.32;42.07;96662.53;5073209;28;20553;-74
2021/05/17 09:24:37;;;;;;;11.32;1.65;;;;;;;25.73;44.20;96656.06;5072726;28;20024;-74
2021/05/17 09:27:05;;;;;;;7.50;2.05;;;;;;;25.87;41.88;96646.81;5090623;28;20028;-74
2021/05/17 09:29:38;;;;;;;3.90;1.50;;;;;;;26.03;39.66;96648.22;5057892;28;20448;-74
2021/05/17 09:32:36;;;;;;;2.75;1.58;;;;;;;26.05;39.10;96657.94;5059666;28;20067;-75
2021/05/17 09:35:08;;;;;;;4.30;1.58;;;;;;;26.05;38.18;96657.94;5093990;28;20032;-74
2021/05/17 09:37:50;;;;;;;2.85;1.90;;;;;;;25.45;39.37;96656.25;5077013;28;20111;-75
2021/05/17 09:40:27;;;;;;;4.53;1.90;;;;;;;25.27;42.09;96651.38;5076887;28;20024;-75
2021/05/17 09:43:09;;;;;;;6.70;1.88;;;;;;;24.98;43.09;96654.47;5093053;28;20027;-75
2021/05/17 09:45:40;;;;;;;2.75;1.70;;;;;;;24.78;41.85;96645.34;5076333;28;20028;-75
2021/05/17 09:48:18;;;;;;;6.43;1.67;;;;;;;24.47;45.15;96651.31;5094558;28;20032;-75
2021/05/17 09:50:56;;;;;;;7.85;2.15;;;;;;;24.59;45.91;96644.22;5076488;28;20495;-74
2021/05/17 09:53:26;;;;;;;3.25;1.73;;;;;;;24.43;44.88;96636.34;5094805;28;20102;-75
2021/05/17 09:55:52;;;;;;;8.82;1.83;;;;;;;24.80;42.58;96630.41;5055699;28;20047;-75
2021/05/17 09:58:30;;;;;;;6.90;1.90;;;;;;;24.69;42.68;96635.63;5039562;28;20467;-75
2021/05/17 10:01:09;;;;;;;5.70;2.33;;;;;;;25.00;42.72;96643.34;5055692;28;20037;-75
2021/05/17 10:03:37;;;;;;;8.15;2.20;;;;;;;25.24;41.17;96643.59;5088841;28;20410;-75
2021/05/17 10:06:03;;;;;;;4.72;2.38;;;;;;;25.48;39.66;96642.13;5093825;28;20028;-75
2021/05/17 10:08:28;;;;;;;5.78;2.28;;;;;;;25.28;43.17;96647.59;5075844;28;20024;-75
2021/05/17 10:10:54;;;;;;;5.55;2.13;;;;;;;25.33;40.47;96641.50;5050886;28;20629;-75
2021/05/17 10:13:20;;;;;;;7.63;2.45;;;;;;;25.00;42.29;96646.91;5075982;28;20110;-74
2021/05/17 10:15:48;;;;;;;5.95;2.35;;;;;;;24.96;41.82;96642.91;5075668;28;20110;-75
2021/05/17 10:18:13;;;;;;;6.53;2.35;;;;;;;25.01;41.30;96634.91;5075884;28;20039;-74
2021/05/17 10:20:39;;;;;;;5.03;2.88;;;;;;;25.49;41.53;96649.34;5075344;28;20024;-74
2021/05/17 10:23:05;;;;;;;21.95;6.40;;;;;;;25.73;40.57;96645.09;5075602;28;20039;-74
2021/05/17 10:25:33;;;;;;;12.57;9.00;;;;;;;25.78;41.29;96637.94;5075823;28;20454;-74
2021/05/17 10:28:18;;;;;;;4.28;2.28;;;;;;;25.57;40.34;96627.19;5041294;28;20510;-74
2021/05/17 10:30:44;;;;;;;6.53;2.60;;;;;;;25.25;41.38;96628.00;5055856;28;20028;-74
2021/05/17 10:33:11;;;;;;;7.78;3.65;;;;;;;24.92;43.84;96630.66;5057364;28;20572;-74
2021/05/17 10:35:39;;;;;;;7.85;4.32;;;;;;;25.16;44.05;96635.56;5052410;28;20028;-75
2021/05/17 10:43:53;;;;;;;2.28;1.40;;;;;;;24.39;39.99;96634.25;5073192;28;20087;-74
2021/05/17 10:46:42;;;;;;;3.35;1.88;;;;;;;24.10;41.84;96630.69;5076414;28;20027;-74
2021/05/17 10:49:40;;;;;;;3.15;2.22;;;;;;;23.87;44.46;96629.31;5075211;28;20035;-74
2021/05/17 10:52:06;;;;;;;30.58;14.48;;;;;;;23.50;45.16;96638.69;5016409;28;20051;-73
2021/05/17 10:54:40;;;;;;;4.88;1.55;;;;;;;23.13;43.41;96629.69;5088151;28;20048;-74
2021/05/17 10:57:40;;;;;;;17.90;11.43;;;;;;;22.81;46.10;96641.13;5038368;28;20033;-74
2021/05/17 11:00:24;;;;;;;9.48;5.57;;;;;;;22.57;45.44;96646.91;5054900;28;20032;-74
2021/05/17 11:03:07;;;;;;;7.10;4.20;;;;;;;22.42;46.61;96629.75;5064347;28;20036;-74
2021/05/17 11:05:33;;;;;;;3.83;1.73;;;;;;;22.27;46.30;96632.47;5058458;28;20024;-74
2021/05/17 11:08:01;;;;;;;7.47;2.75;;;;;;;22.14;46.95;96627.72;5074801;28;20154;-75
2021/05/17 11:10:32;;;;;;;4.75;2.00;;;;;;;22.20;49.67;96628.84;5054748;28;20035;-75
2021/05/17 11:13:29;;;;;;;5.85;1.80;;;;;;;21.87;49.73;96628.31;5046861;28;20133;-75
2021/05/17 11:16:20;;;;;;;2.03;1.65;;;;;;;21.89;48.85;96629.03;5072062;28;20140;-75
2021/05/17 11:18:51;;;;;;;5.00;1.93;;;;;;;21.63;48.72;96628.59;5067092;28;20036;-74
2021/05/17 11:21:25;;;;;;;4.47;2.08;;;;;;;21.72;51.23;96635.66;5051510;28;20028;-74
2021/05/17 11:23:56;;;;;;;13.07;2.67;;;;;;;21.61;51.77;96638.84;5051734;28;20020;-74
2021/05/17 11:26:23;;;;;;;4.10;1.80;;;;;;;21.71;49.94;96641.28;5051610;28;20408;-75
2021/05/17 11:28:49;;;;;;;6.07;1.98;;;;;;;21.63;52.52;96640.34;5051472;28;20032;-76
2021/05/17 11:34:04;;;;;;;3.38;1.70;;;;;;;21.58;54.47;96647.38;5051289;28;20096;-74
2021/05/17 11:36:50;;;;;;;2.38;1.58;;;;;;;21.64;55.02;96646.63;5051246;28;20344;-75
2021/05/17 11:39:16;;;;;;;3.08;1.40;;;;;;;21.55;52.51;96653.19;5068916;28;20036;-75
2021/05/17 11:41:58;;;;;;;3.25;2.85;;;;;;;21.48;54.31;96644.06;5069434;28;20372;-75
2021/05/17 11:44:55;;;;;;;6.53;1.70;;;;;;;21.52;54.90;96645.41;5071554;28;20732;-74
2021/05/17 11:47:24;;;;;;;4.38;1.60;;;;;;;21.79;55.11;96649.38;5065225;28;20093;-75
2021/05/17 11:49:53;;;;;;;8.50;2.30;;;;;;;22.11;54.79;96649.03;5065023;28;20036;-75
2021/05/17 11:52:32;;;;;;;5.07;1.70;;;;;;;22.37;52.07;96648.53;5058545;28;20047;-78
2021/05/17 11:55:08;;;;;;;2.08;1.52;;;;;;;22.71;49.79;96648.78;5046490;28;20144;-76
2021/05/17 11:57:36;;;;;;;2.90;1.35;;;;;;;22.98;51.98;96647.19;5071347;28;20438;-75
2021/05/17 12:00:07;;;;;;;2.95;1.45;;;;;;;23.20;50.03;96651.59;5087521;28;20116;-74
2021/05/17 12:02:33;;;;;;;3.55;1.52;;;;;;;23.46;47.54;96645.56;5054087;28;20024;-74